createdAt,value
2023-04-10T00:02:00.690Z,18.73
2023-04-10T00:04:29.831Z,19.63
2023-04-10T00:06:59.110Z,18.90
2023-04-10T00:09:29.090Z,18.33
2023-04-10T00:11:58.609Z,16.10
2023-04-10T00:14:29.045Z,17.48
2023-04-10T00:16:58.415Z,16.83
2023-04-10T00:19:27.450Z,18.23
2023-04-10T00:21:58.161Z,16.27
2023-04-10T00:26:56.963Z,19.38
2023-04-10T00:29:26.173Z,17.17
2023-04-10T00:31:56.872Z,16.38
2023-04-10T00:34:26.325Z,17.30
2023-04-10T00:36:55.585Z,19.77
2023-04-10T00:39:24.674Z,17.30
2023-04-10T00:41:53.953Z,16.48
2023-04-10T00:44:23.013Z,15.50
2023-04-10T00:46:52.368Z,15.07
2023-04-10T00:49:22.815Z,14.20
2023-04-10T00:51:52.578Z,14.40
2023-04-10T00:54:21.623Z,16.97
2023-04-10T00:56:51.568Z,15.67
2023-04-10T00:59:20.799Z,14.73
2023-04-10T01:01:50.649Z,16.30
2023-04-10T01:04:21.741Z,16.40
2023-04-10T01:07:00.625Z,11.48
2023-04-10T01:09:39.747Z,13.38
2023-04-10T01:12:21.902Z,15.40
2023-04-10T01:14:59.568Z,15.57
2023-04-10T01:17:34.034Z,15.00
2023-04-10T01:20:10.591Z,16.52
2023-04-10T01:22:50.786Z,14.02
2023-04-10T01:25:40.630Z,15.85
2023-04-10T01:28:43.064Z,14.05
2023-04-10T01:31:21.527Z,15.27
2023-04-10T01:33:54.313Z,13.48
2023-04-10T01:36:28.120Z,15.05
2023-04-10T01:38:59.780Z,11.68
2023-04-10T01:41:29.216Z,14.80
2023-04-10T01:44:01.194Z,10.75
2023-04-10T01:46:32.386Z,16.65
2023-04-10T01:49:03.865Z,15.38
2023-04-10T01:51:33.910Z,12.30
2023-04-10T01:54:07.170Z,14.90
2023-04-10T01:56:37.218Z,16.13
2023-04-10T01:59:06.962Z,14.75
2023-04-10T02:01:37.442Z,13.83
2023-04-10T02:04:07.354Z,15.32
2023-04-10T02:06:46.228Z,15.70
2023-04-10T02:09:21.821Z,15.30
2023-04-10T02:11:56.988Z,16.17
2023-04-10T02:14:29.592Z,15.85
2023-04-10T02:17:02.572Z,15.63
2023-04-10T02:19:34.328Z,15.10
2023-04-10T02:22:06.155Z,19.17
2023-04-10T02:24:37.030Z,16.98
2023-04-10T02:27:06.573Z,17.35
2023-04-10T02:29:35.909Z,17.90
2023-04-10T02:32:07.807Z,16.70
2023-04-10T02:34:37.150Z,13.73
2023-04-10T02:37:07.481Z,15.80
2023-04-10T02:39:37.210Z,15.27
2023-04-10T02:42:06.705Z,14.93
2023-04-10T02:44:39.531Z,15.43
2023-04-10T02:47:10.064Z,13.63
2023-04-10T02:49:41.213Z,14.88
2023-04-10T02:52:15.262Z,14.18
2023-04-10T02:54:44.623Z,14.20
2023-04-10T02:57:13.648Z,15.95
2023-04-10T02:59:43.572Z,15.40
2023-04-10T03:02:15.100Z,13.93
2023-04-10T03:04:44.594Z,14.27
2023-04-10T03:07:14.101Z,13.20
2023-04-10T03:09:43.397Z,12.97
2023-04-10T03:12:12.352Z,11.90
2023-04-10T03:14:41.876Z,14.17
2023-04-10T03:17:12.228Z,13.13
2023-04-10T03:19:43.186Z,16.13
2023-04-10T03:22:12.233Z,13.25
2023-04-10T03:24:42.917Z,16.33
2023-04-10T03:27:11.931Z,14.88
2023-04-10T03:29:41.304Z,14.88
2023-04-10T03:32:10.601Z,11.88
2023-04-10T03:34:39.851Z,13.70
2023-04-10T03:37:10.588Z,15.05
2023-04-10T03:39:40.247Z,12.82
2023-04-10T03:42:09.495Z,13.90
2023-04-10T03:44:39.372Z,11.02
2023-04-10T03:47:10.214Z,14.45
2023-04-10T03:49:39.595Z,12.53
2023-04-10T03:52:10.820Z,15.98
2023-04-10T03:54:41.301Z,14.65
2023-04-10T03:57:13.648Z,14.57
2023-04-10T03:59:43.313Z,14.95
2023-04-10T04:02:14.714Z,16.25
2023-04-10T04:04:45.749Z,14.13
2023-04-10T04:07:36.424Z,15.13
2023-04-10T04:10:20.459Z,13.38
2023-04-10T04:13:12.512Z,11.40
2023-04-10T04:16:12.286Z,14.25
2023-04-10T04:18:56.948Z,12.05
2023-04-10T04:21:40.068Z,12.18
2023-04-10T04:24:28.799Z,14.75
2023-04-10T04:27:09.673Z,13.55
2023-04-10T04:29:58.020Z,13.13
2023-04-10T04:32:47.055Z,11.38
2023-04-10T04:35:48.570Z,13.25
2023-04-10T04:38:38.832Z,13.52
2023-04-10T04:41:33.525Z,15.38
2023-04-10T04:44:21.450Z,11.80
2023-04-10T04:47:02.236Z,14.70
2023-04-10T04:49:50.576Z,12.30
2023-04-10T04:52:19.556Z,12.48
2023-04-10T04:55:02.152Z,14.80
2023-04-10T04:57:50.259Z,14.13
2023-04-10T05:00:42.539Z,15.80
2023-04-10T05:03:28.590Z,14.60
2023-04-10T05:06:06.847Z,14.40
2023-04-10T05:09:02.231Z,12.38
2023-04-10T05:11:51.502Z,15.63
2023-04-10T05:14:38.276Z,16.73
2023-04-10T05:17:23.087Z,15.70
2023-04-10T05:19:59.614Z,14.75
2023-04-10T05:22:59.391Z,13.60
2023-04-10T05:25:38.155Z,12.85
2023-04-10T05:28:33.946Z,12.05
2023-04-10T05:31:23.125Z,14.82
2023-04-10T05:33:57.943Z,12.73
2023-04-10T05:36:47.235Z,14.07
2023-04-10T05:39:35.225Z,12.95
2023-04-10T05:42:24.017Z,10.65
2023-04-10T05:45:19.978Z,14.70
2023-04-10T05:48:02.938Z,11.20
2023-04-10T05:50:54.420Z,10.13
2023-04-10T05:53:41.935Z,10.43
2023-04-10T05:56:29.609Z,11.43
2023-04-10T05:59:24.582Z,8.27
2023-04-10T06:02:23.243Z,9.85
2023-04-10T06:04:54.730Z,10.77
2023-04-10T06:07:24.929Z,9.48
2023-04-10T06:09:53.958Z,8.70
2023-04-10T06:12:23.216Z,10.97
2023-04-10T06:14:52.784Z,10.55
2023-04-10T06:17:25.938Z,8.93
2023-04-10T06:19:59.796Z,10.77
2023-04-10T06:22:29.429Z,7.88
2023-04-10T06:24:58.386Z,6.20
2023-04-10T06:27:28.233Z,8.85
2023-04-10T06:29:57.500Z,11.85
2023-04-10T06:32:27.272Z,8.13
2023-04-10T06:34:57.731Z,8.45
2023-04-10T06:37:31.671Z,9.02
2023-04-10T06:40:10.583Z,8.57
2023-04-10T06:42:41.220Z,9.85
2023-04-10T06:45:16.225Z,7.47
2023-04-10T06:47:45.718Z,9.35
2023-04-10T06:50:16.193Z,10.50
2023-04-10T06:52:46.126Z,10.02
2023-04-10T06:55:15.396Z,7.72
2023-04-10T06:57:45.693Z,9.45
2023-04-10T07:00:15.622Z,7.32
2023-04-10T07:02:46.116Z,10.10
2023-04-10T07:05:17.705Z,7.03
2023-04-10T07:07:47.668Z,8.68
2023-04-10T07:10:16.648Z,6.90
2023-04-10T07:12:45.943Z,8.35
2023-04-10T07:15:15.071Z,12.48
2023-04-10T07:17:44.482Z,11.93
2023-04-10T07:20:14.086Z,10.52
2023-04-10T07:22:44.780Z,12.63
2023-04-10T07:25:14.389Z,10.13
2023-04-10T07:27:43.729Z,13.02
2023-04-10T07:30:13.901Z,9.88
2023-04-10T07:32:43.438Z,10.52
2023-04-10T07:35:12.570Z,9.23
2023-04-10T07:37:44.243Z,10.27
2023-04-10T07:40:13.804Z,9.77
2023-04-10T07:42:43.070Z,11.63
2023-04-10T07:45:12.921Z,11.20
2023-04-10T07:47:42.369Z,8.68
2023-04-10T07:50:11.773Z,9.32
2023-04-10T07:52:41.083Z,11.27
2023-04-10T07:55:12.105Z,11.18
2023-04-10T07:57:42.300Z,9.85
2023-04-10T08:00:12.542Z,13.02
2023-04-10T08:02:45.546Z,12.07
2023-04-10T08:05:14.898Z,9.25
2023-04-10T08:07:46.199Z,9.40
2023-04-10T08:10:16.790Z,9.60
2023-04-10T08:12:46.173Z,10.75
2023-04-10T08:15:15.586Z,10.50
2023-04-10T08:17:45.261Z,8.43
2023-04-10T08:20:15.180Z,6.97
2023-04-10T08:22:44.476Z,7.35
2023-04-10T08:25:13.500Z,8.48
2023-04-10T08:27:44.320Z,8.33
2023-04-10T08:30:13.915Z,6.53
2023-04-10T08:32:43.215Z,7.38
2023-04-10T08:35:12.232Z,5.40
2023-04-10T08:37:41.531Z,6.53
2023-04-10T08:40:11.314Z,5.28
2023-04-10T08:42:40.842Z,5.97
2023-04-10T08:45:12.223Z,6.65
2023-04-10T08:47:45.447Z,4.82
2023-04-10T08:50:17.321Z,10.60
2023-04-10T08:52:57.593Z,6.63
2023-04-10T08:55:27.708Z,7.40
2023-04-10T08:58:00.948Z,7.32
2023-04-10T09:00:34.579Z,5.00
2023-04-10T09:03:05.221Z,5.05
2023-04-10T09:05:35.402Z,4.97
2023-04-10T09:08:06.153Z,5.88
2023-04-10T09:10:35.532Z,7.43
2023-04-10T09:13:04.581Z,7.20
2023-04-10T09:15:57.641Z,4.97
2023-04-10T09:18:43.100Z,5.10
2023-04-10T09:21:14.349Z,5.00
2023-04-10T09:23:45.936Z,4.90
2023-04-10T09:26:25.899Z,4.15
2023-04-10T09:29:02.240Z,6.05
2023-04-10T09:31:34.191Z,3.67
2023-04-10T09:34:13.964Z,9.88
2023-04-10T09:36:44.114Z,6.35
2023-04-10T09:39:14.665Z,6.93
2023-04-10T09:41:51.757Z,6.07
2023-04-10T09:44:31.309Z,4.85
2023-04-10T09:47:01.109Z,8.15
2023-04-10T09:49:30.243Z,7.20
2023-04-10T09:51:59.565Z,5.53
2023-04-10T09:54:39.142Z,5.95
2023-04-10T09:57:09.117Z,6.07
2023-04-10T09:59:42.920Z,5.13
2023-04-10T10:02:14.506Z,8.35
2023-04-10T10:04:46.008Z,4.72
2023-04-10T10:07:16.686Z,7.78
2023-04-10T10:09:48.388Z,6.78
2023-04-10T10:12:20.549Z,6.22
2023-04-10T10:14:58.684Z,6.25
2023-04-10T10:17:36.526Z,6.20
2023-04-10T10:20:09.911Z,6.40
2023-04-10T10:22:39.547Z,5.45
2023-04-10T10:25:11.802Z,5.63
2023-04-10T10:27:42.890Z,6.10
2023-04-10T10:30:28.113Z,4.55
2023-04-10T10:32:59.515Z,6.28
2023-04-10T10:35:30.059Z,4.97
2023-04-10T10:38:01.446Z,5.57
2023-04-10T10:40:39.822Z,3.42
2023-04-10T10:43:18.184Z,3.80
2023-04-10T10:45:56.099Z,4.25
2023-04-10T10:48:25.678Z,5.55
2023-04-10T10:50:57.553Z,4.70
2023-04-10T10:53:47.907Z,4.90
2023-04-10T10:56:37.564Z,5.43
2023-04-10T10:59:06.885Z,4.80
2023-04-10T11:01:35.961Z,4.45
2023-04-10T11:04:43.493Z,5.25
2023-04-10T11:07:13.258Z,5.63
2023-04-10T11:09:52.403Z,3.38
2023-04-10T11:12:24.653Z,4.22
2023-04-10T11:15:01.788Z,3.45
2023-04-10T11:17:51.692Z,6.07
2023-04-10T11:20:27.279Z,4.57
2023-04-10T11:23:11.177Z,3.85
2023-04-10T11:25:49.534Z,3.33
2023-04-10T11:28:40.842Z,3.45
2023-04-10T11:31:22.208Z,4.45
2023-04-10T11:33:53.641Z,4.65
2023-04-10T11:36:23.115Z,7.50
2023-04-10T11:38:59.016Z,5.03
2023-04-10T11:41:30.667Z,3.45
2023-04-10T11:44:01.979Z,3.80
2023-04-10T11:46:32.267Z,4.10
2023-04-10T11:51:32.265Z,4.55
2023-04-10T11:56:39.339Z,4.30
2023-04-10T11:59:11.462Z,8.07
2023-04-10T12:01:43.346Z,5.97
2023-04-10T12:04:17.260Z,6.15
2023-04-10T12:06:48.527Z,8.40
2023-04-10T12:09:18.402Z,6.68
2023-04-10T12:11:53.152Z,4.38
2023-04-10T12:14:24.771Z,4.50
2023-04-10T12:16:54.510Z,4.90
2023-04-10T12:19:23.746Z,5.43
2023-04-10T12:21:53.259Z,4.13
2023-04-10T12:24:43.845Z,4.65
2023-04-10T12:27:18.642Z,4.30
2023-04-10T12:29:50.780Z,5.47
2023-04-10T12:32:20.757Z,6.32
2023-04-10T12:34:53.362Z,6.00
2023-04-10T12:37:22.947Z,5.85
2023-04-10T12:39:52.279Z,7.30
2023-04-10T12:42:23.245Z,5.20
2023-04-10T12:44:55.124Z,6.18
2023-04-10T12:47:25.217Z,4.47
2023-04-10T12:50:11.431Z,3.65
2023-04-10T12:52:42.511Z,5.55
2023-04-10T12:55:13.528Z,6.88
2023-04-10T12:57:43.913Z,5.03
2023-04-10T13:02:45.564Z,5.70
2023-04-10T13:05:14.849Z,4.90
2023-04-10T13:07:44.162Z,5.05
2023-04-10T13:10:13.291Z,5.03
2023-04-10T13:12:44.317Z,4.82
2023-04-10T13:15:14.814Z,4.93
2023-04-10T13:17:44.259Z,5.68
2023-04-10T13:20:14.124Z,5.37
2023-04-10T13:25:12.189Z,4.40
2023-04-10T13:27:41.469Z,5.72
2023-04-10T13:30:11.007Z,4.72
2023-04-10T13:32:42.379Z,6.25
2023-04-10T13:35:11.698Z,6.45
2023-04-10T13:37:40.942Z,5.32
2023-04-10T13:40:11.197Z,5.20
2023-04-10T13:42:42.392Z,6.25
2023-04-10T13:45:12.383Z,3.42
2023-04-10T13:52:41.303Z,5.13
2023-04-10T13:55:11.292Z,4.97
2023-04-10T13:57:41.342Z,6.78
2023-04-10T14:00:11.598Z,6.47
2023-04-10T14:02:45.854Z,5.80
2023-04-10T14:05:15.038Z,5.97
2023-04-10T14:07:44.277Z,4.40
2023-04-10T14:10:13.557Z,5.70
2023-04-10T14:12:42.858Z,5.53
2023-04-10T14:15:12.415Z,8.05
2023-04-10T14:17:41.843Z,4.05
2023-04-10T14:20:13.456Z,6.93
2023-04-10T14:22:42.799Z,5.47
2023-04-10T14:25:15.900Z,7.75
2023-04-10T14:27:45.688Z,4.30
2023-04-10T14:30:14.959Z,4.97
2023-04-10T14:32:44.609Z,5.28
2023-04-10T14:35:15.506Z,5.70
2023-04-10T14:37:44.854Z,4.32
2023-04-10T14:40:14.014Z,4.80
2023-04-10T14:42:43.377Z,6.50
2023-04-10T14:45:12.668Z,6.78
2023-04-10T14:47:42.052Z,6.13
2023-04-10T14:50:11.917Z,6.93
2023-04-10T14:52:42.603Z,5.03
2023-04-10T14:55:12.388Z,4.90
2023-04-10T15:00:11.697Z,5.82
2023-04-10T15:02:41.051Z,9.57
2023-04-10T15:05:10.276Z,8.38
2023-04-10T15:07:41.045Z,7.15
2023-04-10T15:10:10.812Z,5.15
2023-04-10T15:15:10.058Z,4.97
2023-04-10T15:17:39.437Z,5.50
2023-04-10T15:20:09.193Z,7.97
2023-04-10T15:25:11.996Z,11.23
2023-04-10T15:27:41.872Z,8.43
2023-04-10T15:30:11.636Z,6.47
2023-04-10T15:35:10.696Z,6.03
2023-04-10T15:37:40.066Z,5.30
2023-04-10T15:40:11.587Z,6.35
2023-04-10T15:42:40.938Z,5.80
2023-04-10T15:45:10.079Z,6.00
2023-04-10T15:47:39.533Z,6.40
2023-04-10T15:50:10.710Z,6.10
2023-04-10T15:52:40.393Z,6.05
2023-04-10T15:55:11.102Z,16.73
2023-04-10T15:57:40.470Z,5.47
2023-04-10T16:00:10.649Z,5.90
2023-04-10T16:02:40.221Z,6.75
2023-04-10T16:05:09.828Z,6.63
2023-04-10T16:07:40.768Z,5.50
2023-04-10T16:10:12.407Z,8.90
2023-04-10T16:12:42.815Z,6.45
2023-04-10T16:15:12.109Z,7.03
2023-04-10T16:17:41.470Z,9.65
2023-04-10T16:20:11.039Z,7.45
2023-04-10T16:22:40.401Z,6.53
2023-04-10T16:25:11.388Z,7.88
2023-04-10T16:27:40.711Z,9.07
2023-04-10T16:30:11.896Z,8.90
2023-04-10T16:32:41.252Z,10.85
2023-04-10T16:35:10.680Z,9.85
2023-04-10T16:37:40.114Z,7.97
2023-04-10T16:40:12.573Z,9.15
2023-04-10T16:42:43.316Z,12.93
2023-04-10T16:45:13.166Z,11.43
2023-04-10T16:50:13.952Z,6.97
2023-04-10T16:52:43.334Z,11.48
2023-04-10T16:55:13.894Z,8.00
2023-04-10T16:57:44.510Z,7.15
2023-04-10T17:00:14.552Z,9.27
2023-04-10T17:02:44.122Z,10.65
2023-04-10T17:05:13.795Z,13.70
2023-04-10T17:07:44.562Z,17.40
2023-04-10T17:10:15.549Z,17.73
2023-04-10T17:12:45.949Z,26.67
2023-04-10T17:15:14.996Z,14.35
2023-04-10T17:17:44.290Z,13.87
2023-04-10T17:20:14.042Z,14.73
2023-04-10T17:22:43.470Z,14.48
2023-04-10T17:25:14.519Z,11.05
2023-04-10T17:27:43.909Z,12.88
2023-04-10T17:30:14.117Z,19.77
2023-04-10T17:32:43.527Z,22.00
2023-04-10T17:35:12.552Z,23.38
2023-04-10T17:37:42.005Z,18.60
2023-04-10T17:40:12.253Z,20.15
2023-04-10T17:42:43.167Z,16.83
2023-04-10T17:45:14.134Z,19.42
2023-04-10T17:47:44.103Z,18.42
2023-04-10T17:50:13.497Z,16.50
2023-04-10T17:52:44.599Z,13.17
2023-04-10T17:55:18.453Z,14.50
2023-04-10T17:57:53.198Z,19.80
2023-04-10T18:00:24.429Z,21.65
2023-04-10T18:03:00.869Z,27.90
2023-04-10T18:05:30.778Z,26.70
2023-04-10T18:08:00.077Z,14.25
2023-04-10T18:10:29.125Z,15.27
2023-04-10T18:12:59.750Z,14.07
2023-04-10T18:15:29.172Z,11.70
2023-04-10T18:17:58.584Z,14.85
2023-04-10T18:20:27.683Z,13.95
2023-04-10T18:22:57.050Z,19.63
2023-04-10T18:25:26.088Z,13.57
2023-04-10T18:28:13.196Z,14.40
2023-04-10T18:30:45.378Z,13.70
2023-04-10T18:33:20.378Z,19.27
2023-04-10T18:35:49.463Z,21.63
2023-04-10T18:38:19.253Z,17.73
2023-04-10T18:40:48.375Z,17.65
2023-04-10T18:43:17.660Z,18.10
2023-04-10T18:45:48.132Z,14.30
2023-04-10T18:48:17.484Z,18.23
2023-04-10T18:50:46.536Z,15.93
2023-04-10T18:53:15.980Z,17.30
2023-04-10T18:55:51.211Z,17.83
2023-04-10T18:58:20.757Z,21.63
2023-04-10T19:00:51.174Z,21.23
2023-04-10T19:03:20.631Z,21.35
2023-04-10T19:05:49.715Z,19.60
2023-04-10T19:08:19.106Z,23.60
2023-04-10T19:10:48.137Z,23.63
2023-04-10T19:13:17.461Z,20.97
2023-04-10T19:15:48.493Z,19.85
2023-04-10T19:18:20.536Z,19.92
2023-04-10T19:20:53.132Z,18.25
2023-04-10T19:23:22.675Z,17.00
2023-04-10T19:25:54.353Z,27.52
2023-04-10T19:28:25.680Z,29.48
2023-04-10T19:30:54.888Z,27.40
2023-04-10T19:33:25.652Z,23.58
2023-04-10T19:35:54.921Z,19.75
2023-04-10T19:38:24.254Z,18.08
2023-04-10T19:40:53.726Z,16.50
2023-04-10T19:43:23.171Z,20.95
2023-04-10T19:45:53.019Z,19.60
2023-04-10T19:48:22.370Z,19.90
2023-04-10T19:50:52.750Z,17.52
2023-04-10T19:53:22.126Z,17.33
2023-04-10T19:55:51.239Z,16.33
2023-04-10T19:58:38.993Z,15.80
2023-04-10T20:01:10.347Z,15.13
2023-04-10T20:03:40.347Z,25.00
2023-04-10T20:06:11.413Z,22.55
2023-04-10T20:08:41.062Z,23.00
2023-04-10T20:11:10.339Z,20.80
2023-04-10T20:13:40.986Z,27.45
2023-04-10T20:16:10.405Z,23.30
2023-04-10T20:18:41.323Z,30.75
2023-04-10T20:21:11.703Z,34.50
2023-04-10T20:23:41.465Z,38.15
2023-04-10T20:26:12.043Z,33.10
2023-04-10T20:28:41.696Z,54.25
2023-04-10T20:31:11.830Z,43.65
2023-04-10T20:33:41.139Z,46.50
2023-04-10T20:36:12.110Z,60.28
2023-04-10T20:38:41.535Z,52.92
2023-04-10T20:41:10.551Z,49.10
2023-04-10T20:43:39.994Z,71.88
2023-04-10T20:46:09.417Z,69.30
2023-04-10T20:48:38.720Z,33.88
2023-04-10T20:51:10.604Z,30.38
2023-04-10T20:53:41.285Z,26.05
2023-04-10T20:56:10.846Z,24.73
2023-04-10T20:58:40.217Z,22.23
2023-04-10T21:01:10.844Z,22.80
2023-04-10T21:03:42.371Z,32.17
2023-04-10T21:06:14.795Z,42.58
2023-04-10T21:08:45.631Z,27.15
2023-04-10T21:11:14.676Z,36.42
2023-04-10T21:13:43.926Z,40.57
2023-04-10T21:16:12.981Z,43.38
2023-04-10T21:18:42.512Z,56.90
2023-04-10T21:21:11.645Z,46.30
2023-04-10T21:23:40.909Z,32.57
2023-04-10T21:26:11.462Z,30.00
2023-04-10T21:28:40.764Z,25.15
2023-04-10T21:31:11.440Z,28.52
2023-04-10T21:33:40.845Z,30.42
2023-04-10T21:36:10.169Z,31.92
2023-04-10T21:38:39.581Z,33.78
2023-04-10T21:41:12.211Z,31.65
2023-04-10T21:43:43.195Z,34.60
2023-04-10T21:46:12.275Z,34.53
2023-04-10T21:48:41.851Z,37.77
2023-04-10T21:51:10.902Z,37.30
2023-04-10T21:53:40.461Z,34.35
2023-04-10T21:56:11.329Z,32.00
2023-04-10T21:58:40.686Z,26.02
2023-04-10T22:01:09.873Z,27.38
2023-04-10T22:03:39.284Z,26.42
2023-04-10T22:06:08.992Z,25.83
2023-04-10T22:08:40.223Z,26.42
2023-04-10T22:11:09.503Z,21.55
2023-04-10T22:13:40.119Z,23.48
2023-04-10T22:16:09.567Z,20.05
2023-04-10T22:18:38.808Z,23.30
2023-04-10T22:21:08.326Z,19.42
2023-04-10T22:23:37.715Z,20.90
2023-04-10T22:26:07.133Z,20.25
2023-04-10T22:28:36.480Z,22.88
2023-04-10T22:31:07.060Z,18.10
2023-04-10T22:33:37.626Z,20.42
2023-04-10T22:38:36.002Z,16.25
2023-04-10T22:41:06.736Z,19.98
2023-04-10T22:43:36.303Z,18.38
2023-04-10T22:46:07.089Z,21.17
2023-04-10T22:48:36.527Z,19.42
2023-04-10T22:51:10.845Z,18.73
2023-04-10T22:53:40.720Z,21.17
2023-04-10T22:56:11.391Z,19.70
2023-04-10T22:58:42.052Z,18.42
2023-04-10T23:03:43.170Z,19.33
2023-04-10T23:06:12.272Z,26.93
2023-04-10T23:08:41.587Z,17.92
2023-04-10T23:11:10.566Z,18.55
2023-04-10T23:13:41.896Z,19.67
2023-04-10T23:16:13.135Z,20.38
2023-04-10T23:18:42.541Z,17.35
2023-04-10T23:21:11.523Z,16.17
2023-04-10T23:23:40.817Z,17.47
2023-04-10T23:26:11.459Z,17.52
2023-04-10T23:28:41.051Z,16.67
2023-04-10T23:31:10.193Z,16.50
2023-04-10T23:33:40.943Z,17.95
2023-04-10T23:36:10.588Z,17.35
2023-04-10T23:38:39.904Z,17.08
2023-04-10T23:41:09.383Z,16.08
2023-04-10T23:43:38.640Z,19.83
2023-04-10T23:46:08.070Z,14.73
2023-04-10T23:48:37.499Z,12.98
2023-04-10T23:51:09.180Z,15.15
2023-04-10T23:53:38.573Z,15.32
2023-04-10T23:56:08.849Z,13.30
2023-04-10T23:58:38.152Z,16.05
